sensor_id;sensor_type;location;lat;lon;timestamp;pressure;altitude;pressure_sealevel;temperature;humidity
23229;BME280;11783;50.350;6.576;2023-03-11T00:00:32;95137.59;;;-0.94;100.00
23229;BME280;11783;50.350;6.576;2023-03-11T00:02:59;95145.84;;;-0.97;100.00
23229;BME280;11783;50.350;6.576;2023-03-11T00:05:31;95151.66;;;-0.95;100.00
23229;BME280;11783;50.350;6.576;2023-03-11T00:07:57;95150.66;;;-0.94;100.00
23229;BME280;11783;50.350;6.576;2023-03-11T00:10:33;95141.63;;;-0.98;100.00
23229;BME280;11783;50.350;6.576;2023-03-11T00:12:59;95147.25;;;-0.95;100.00
23229;BME280;11783;50.350;6.576;2023-03-11T00:15:26;95149.28;;;-0.90;100.00
23229;BME280;11783;50.350;6.576;2023-03-11T00:17:51;95157.31;;;-0.92;100.00
23229;BME280;11783;50.350;6.576;2023-03-11T00:20:23;95161.09;;;-0.94;100.00
23229;BME280;11783;50.350;6.576;2023-03-11T00:22:49;95159.88;;;-0.98;100.00
23229;BME280;11783;50.350;6.576;2023-03-11T00:25:18;95168.31;;;-0.96;100.00
23229;BME280;11783;50.350;6.576;2023-03-11T00:27:44;95161.09;;;-0.94;100.00
23229;BME280;11783;50.350;6.576;2023-03-11T00:30:10;95173.13;;;-0.93;100.00
23229;BME280;11783;50.350;6.576;2023-03-11T00:32:36;95175.72;;;-0.93;100.00
23229;BME280;11783;50.350;6.576;2023-03-11T00:35:02;95182.53;;;-0.99;100.00
23229;BME280;11783;50.350;6.576;2023-03-11T00:37:27;95177.94;;;-0.97;100.00
23229;BME280;11783;50.350;6.576;2023-03-11T00:39:53;95169.50;;;-0.99;100.00
23229;BME280;11783;50.350;6.576;2023-03-11T00:42:18;95173.50;;;-1.03;100.00
23229;BME280;11783;50.350;6.576;2023-03-11T00:44:43;95176.53;;;-0.99;100.00
23229;BME280;11783;50.350;6.576;2023-03-11T00:47:12;95172.50;;;-0.95;100.00
23229;BME280;11783;50.350;6.576;2023-03-11T00:49:37;95166.50;;;-0.96;100.00
23229;BME280;11783;50.350;6.576;2023-03-11T00:52:03;95167.09;;;-1.00;100.00
23229;BME280;11783;50.350;6.576;2023-03-11T00:54:29;95170.72;;;-1.01;100.00
23229;BME280;11783;50.350;6.576;2023-03-11T00:56:54;95166.28;;;-1.01;100.00
23229;BME280;11783;50.350;6.576;2023-03-11T00:59:20;95186.16;;;-1.06;100.00
23229;BME280;11783;50.350;6.576;2023-03-11T01:01:45;95179.72;;;-1.10;100.00
23229;BME280;11783;50.350;6.576;2023-03-11T01:04:11;95188.72;;;-1.13;100.00
23229;BME280;11783;50.350;6.576;2023-03-11T01:06:36;95186.31;;;-1.14;100.00
23229;BME280;11783;50.350;6.576;2023-03-11T01:09:02;95195.72;;;-1.13;100.00
23229;BME280;11783;50.350;6.576;2023-03-11T01:11:28;95194.72;;;-1.12;100.00
23229;BME280;11783;50.350;6.576;2023-03-11T01:13:54;95196.94;;;-1.16;100.00
23229;BME280;11783;50.350;6.576;2023-03-11T01:16:19;95203.94;;;-1.16;100.00
23229;BME280;11783;50.350;6.576;2023-03-11T01:18:46;95218.59;;;-1.15;100.00
23229;BME280;11783;50.350;6.576;2023-03-11T01:21:11;95215.97;;;-1.15;100.00
23229;BME280;11783;50.350;6.576;2023-03-11T01:23:38;95215.78;;;-1.14;100.00
23229;BME280;11783;50.350;6.576;2023-03-11T01:26:03;95221.00;;;-1.14;99.69
23229;BME280;11783;50.350;6.576;2023-03-11T01:28:30;95220.00;;;-1.13;100.00
23229;BME280;11783;50.350;6.576;2023-03-11T01:30:55;95212.78;;;-1.17;100.00
23229;BME280;11783;50.350;6.576;2023-03-11T01:33:20;95218.56;;;-1.22;100.00
23229;BME280;11783;50.350;6.576;2023-03-11T01:35:46;95230.41;;;-1.19;100.00
23229;BME280;11783;50.350;6.576;2023-03-11T01:38:13;95223.59;;;-1.20;100.00
23229;BME280;11783;50.350;6.576;2023-03-11T01:40:47;95227.81;;;-1.19;100.00
23229;BME280;11783;50.350;6.576;2023-03-11T01:48:55;95209.75;;;-1.28;100.00
23229;BME280;11783;50.350;6.576;2023-03-11T01:51:30;95232.34;;;-1.35;100.00
23229;BME280;11783;50.350;6.576;2023-03-11T01:54:00;95226.13;;;-1.34;100.00
23229;BME280;11783;50.350;6.576;2023-03-11T01:56:27;95229.91;;;-1.43;100.00
23229;BME280;11783;50.350;6.576;2023-03-11T01:58:53;95231.09;;;-1.45;100.00
23229;BME280;11783;50.350;6.576;2023-03-11T02:01:19;95228.50;;;-1.45;100.00
23229;BME280;11783;50.350;6.576;2023-03-11T02:03:46;95225.09;;;-1.46;100.00
23229;BME280;11783;50.350;6.576;2023-03-11T02:06:15;95226.66;;;-1.52;100.00
23229;BME280;11783;50.350;6.576;2023-03-11T02:08:41;95222.63;;;-1.54;100.00
23229;BME280;11783;50.350;6.576;2023-03-11T02:11:10;95220.19;;;-1.62;100.00
23229;BME280;11783;50.350;6.576;2023-03-11T02:13:37;95221.78;;;-1.61;100.00
23229;BME280;11783;50.350;6.576;2023-03-11T02:16:04;95216.16;;;-1.65;100.00
23229;BME280;11783;50.350;6.576;2023-03-11T02:18:31;95223.19;;;-1.65;100.00
23229;BME280;11783;50.350;6.576;2023-03-11T02:24:11;95229.81;;;-1.63;100.00
23229;BME280;11783;50.350;6.576;2023-03-11T02:26:40;95229.81;;;-1.63;100.00
23229;BME280;11783;50.350;6.576;2023-03-11T02:29:08;95236.25;;;-1.59;100.00
23229;BME280;11783;50.350;6.576;2023-03-11T02:31:37;95236.25;;;-1.52;100.00
23229;BME280;11783;50.350;6.576;2023-03-11T02:34:07;95251.09;;;-1.53;100.00
23229;BME280;11783;50.350;6.576;2023-03-11T02:36:40;95255.91;;;-1.49;100.00
23229;BME280;11783;50.350;6.576;2023-03-11T02:39:06;95239.13;;;-1.47;100.00
23229;BME280;11783;50.350;6.576;2023-03-11T02:41:36;95250.34;;;-1.46;100.00
23229;BME280;11783;50.350;6.576;2023-03-11T02:44:04;95250.09;;;-1.52;100.00
23229;BME280;11783;50.350;6.576;2023-03-11T02:46:31;95244.69;;;-1.50;100.00
23229;BME280;11783;50.350;6.576;2023-03-11T02:48:57;95245.50;;;-1.49;100.00
23229;BME280;11783;50.350;6.576;2023-03-11T02:51:23;95240.13;;;-1.48;100.00
23229;BME280;11783;50.350;6.576;2023-03-11T02:53:56;95239.91;;;-1.46;100.00
23229;BME280;11783;50.350;6.576;2023-03-11T02:56:22;95248.53;;;-1.46;100.00
23229;BME280;11783;50.350;6.576;2023-03-11T02:58:47;95242.75;;;-1.41;100.00
23229;BME280;11783;50.350;6.576;2023-03-11T03:01:13;95244.94;;;-1.45;100.00
23229;BME280;11783;50.350;6.576;2023-03-11T03:03:38;95248.28;;;-1.51;100.00
23229;BME280;11783;50.350;6.576;2023-03-11T03:06:04;95243.66;;;-1.56;100.00
23229;BME280;11783;50.350;6.576;2023-03-11T03:08:30;95246.47;;;-1.57;100.00
23229;BME280;11783;50.350;6.576;2023-03-11T03:10:55;95248.88;;;-1.56;100.00
23229;BME280;11783;50.350;6.576;2023-03-11T03:13:21;95253.09;;;-1.55;100.00
23229;BME280;11783;50.350;6.576;2023-03-11T03:15:46;95250.69;;;-1.56;100.00
23229;BME280;11783;50.350;6.576;2023-03-11T03:18:11;95252.47;;;-1.57;100.00
23229;BME280;11783;50.350;6.576;2023-03-11T03:20:37;95251.69;;;-1.57;100.00
23229;BME280;11783;50.350;6.576;2023-03-11T03:23:02;95245.28;;;-1.55;100.00
23229;BME280;11783;50.350;6.576;2023-03-11T03:25:28;95252.69;;;-1.52;100.00
23229;BME280;11783;50.350;6.576;2023-03-11T03:27:53;95250.47;;;-1.55;100.00
23229;BME280;11783;50.350;6.576;2023-03-11T03:30:18;95260.91;;;-1.55;100.00
23229;BME280;11783;50.350;6.576;2023-03-11T03:32:44;95266.88;;;-1.61;100.00
23229;BME280;11783;50.350;6.576;2023-03-11T03:35:10;95262.25;;;-1.65;100.00
23229;BME280;11783;50.350;6.576;2023-03-11T03:37:36;95261.88;;;-1.62;100.00
23229;BME280;11783;50.350;6.576;2023-03-11T03:40:02;95260.88;;;-1.61;100.00
23229;BME280;11783;50.350;6.576;2023-03-11T03:42:36;95260.25;;;-1.63;100.00
23229;BME280;11783;50.350;6.576;2023-03-11T03:45:03;95251.66;;;-1.64;100.00
23229;BME280;11783;50.350;6.576;2023-03-11T03:47:28;95251.22;;;-1.67;100.00
23229;BME280;11783;50.350;6.576;2023-03-11T03:49:53;95258.03;;;-1.66;100.00
23229;BME280;11783;50.350;6.576;2023-03-11T03:52:19;95268.81;;;-1.69;100.00
23229;BME280;11783;50.350;6.576;2023-03-11T03:54:44;95265.41;;;-1.70;100.00
23229;BME280;11783;50.350;6.576;2023-03-11T03:57:09;95261.00;;;-1.69;100.00
23229;BME280;11783;50.350;6.576;2023-03-11T03:59:35;95260.00;;;-1.68;100.00
23229;BME280;11783;50.350;6.576;2023-03-11T04:02:00;95260.81;;;-1.68;100.00
23229;BME280;11783;50.350;6.576;2023-03-11T04:04:26;95264.59;;;-1.70;100.00
23229;BME280;11783;50.350;6.576;2023-03-11T04:06:51;95268.59;;;-1.74;100.00
23229;BME280;11783;50.350;6.576;2023-03-11T04:09:18;95276.00;;;-1.78;100.00
23229;BME280;11783;50.350;6.576;2023-03-11T04:11:43;95284.59;;;-1.77;100.00
23229;BME280;11783;50.350;6.576;2023-03-11T04:14:09;95282.19;;;-1.79;100.00
23229;BME280;11783;50.350;6.576;2023-03-11T04:16:34;95280.19;;;-1.77;100.00
23229;BME280;11783;50.350;6.576;2023-03-11T04:18:59;95277.78;;;-1.78;100.00
23229;BME280;11783;50.350;6.576;2023-03-11T04:21:25;95289.59;;;-1.83;100.00
23229;BME280;11783;50.350;6.576;2023-03-11T04:23:50;95284.13;;;-1.88;100.00
23229;BME280;11783;50.350;6.576;2023-03-11T04:26:15;95278.72;;;-1.86;100.00
23229;BME280;11783;50.350;6.576;2023-03-11T04:28:41;95284.69;;;-1.92;100.00
23229;BME280;11783;50.350;6.576;2023-03-11T04:31:06;95283.28;;;-1.95;100.00
23229;BME280;11783;50.350;6.576;2023-03-11T04:33:32;95283.03;;;-2.00;100.00
23229;BME280;11783;50.350;6.576;2023-03-11T04:35:58;95294.25;;;-1.99;100.00
23229;BME280;11783;50.350;6.576;2023-03-11T04:38:23;95290.66;;;-1.98;100.00
23229;BME280;11783;50.350;6.576;2023-03-11T04:40:48;95294.06;;;-1.98;100.00
23229;BME280;11783;50.350;6.576;2023-03-11T04:43:14;95302.31;;;-1.94;100.00
23229;BME280;11783;50.350;6.576;2023-03-11T04:45:40;95300.88;;;-1.97;100.00
23229;BME280;11783;50.350;6.576;2023-03-11T04:48:06;95309.50;;;-1.96;100.00
23229;BME280;11783;50.350;6.576;2023-03-11T04:50:32;95304.53;;;-1.91;100.00
23229;BME280;11783;50.350;6.576;2023-03-11T04:52:57;95302.34;;;-1.88;100.00
23229;BME280;11783;50.350;6.576;2023-03-11T04:55:23;95306.75;;;-1.88;100.00
23229;BME280;11783;50.350;6.576;2023-03-11T04:57:48;95309.81;;;-1.85;100.00
23229;BME280;11783;50.350;6.576;2023-03-11T05:00:14;95316.00;;;-1.86;100.00
23229;BME280;11783;50.350;6.576;2023-03-11T05:02:41;95306.75;;;-1.88;100.00
23229;BME280;11783;50.350;6.576;2023-03-11T05:05:07;95311.16;;;-1.89;100.00
23229;BME280;11783;50.350;6.576;2023-03-11T05:07:34;95321.16;;;-1.92;100.00
23229;BME280;11783;50.350;6.576;2023-03-11T05:09:59;95316.28;;;-2.02;100.00
23229;BME280;11783;50.350;6.576;2023-03-11T05:12:25;95318.06;;;-2.02;100.00
23229;BME280;11783;50.350;6.576;2023-03-11T05:14:50;95315.66;;;-2.04;100.00
23229;BME280;11783;50.350;6.576;2023-03-11T05:17:15;95306.41;;;-2.06;100.00
23229;BME280;11783;50.350;6.576;2023-03-11T05:19:43;95321.03;;;-2.05;100.00
23229;BME280;11783;50.350;6.576;2023-03-11T05:22:08;95312.88;;;-2.02;100.00
23229;BME280;11783;50.350;6.576;2023-03-11T05:24:34;95316.28;;;-2.02;100.00
23229;BME280;11783;50.350;6.576;2023-03-11T05:26:59;95318.06;;;-2.02;100.00
23229;BME280;11783;50.350;6.576;2023-03-11T05:29:28;95316.28;;;-2.02;100.00
23229;BME280;11783;50.350;6.576;2023-03-11T05:31:53;95323.47;;;-2.04;100.00
23229;BME280;11783;50.350;6.576;2023-03-11T05:34:19;95324.81;;;-2.08;100.00
23229;BME280;11783;50.350;6.576;2023-03-11T05:36:45;95332.81;;;-2.09;100.00
23229;BME280;11783;50.350;6.576;2023-03-11T05:39:10;95331.75;;;-2.15;100.00
23229;BME280;11783;50.350;6.576;2023-03-11T05:41:36;95329.16;;;-2.15;100.00
23229;BME280;11783;50.350;6.576;2023-03-11T05:44:02;95335.97;;;-2.14;100.00
23229;BME280;11783;50.350;6.576;2023-03-11T05:46:28;95340.38;;;-2.15;100.00
23229;BME280;11783;50.350;6.576;2023-03-11T05:48:53;95338.78;;;-2.16;100.00
23229;BME280;11783;50.350;6.576;2023-03-11T05:51:18;95343.16;;;-2.16;100.00
23229;BME280;11783;50.350;6.576;2023-03-11T05:53:46;95347.19;;;-2.14;100.00
23229;BME280;11783;50.350;6.576;2023-03-11T05:56:15;95349.38;;;-2.17;100.00
23229;BME280;11783;50.350;6.576;2023-03-11T05:58:41;95349.38;;;-2.17;100.00
23229;BME280;11783;50.350;6.576;2023-03-11T06:01:15;95350.75;;;-2.21;100.00
23229;BME280;11783;50.350;6.576;2023-03-11T06:03:41;95351.53;;;-2.21;100.00
23229;BME280;11783;50.350;6.576;2023-03-11T06:06:08;95360.50;;;-2.23;100.00
23229;BME280;11783;50.350;6.576;2023-03-11T06:08:34;95356.28;;;-2.24;100.00
23229;BME280;11783;50.350;6.576;2023-03-11T06:11:07;95361.50;;;-2.24;100.00
23229;BME280;11783;50.350;6.576;2023-03-11T06:13:33;95362.47;;;-2.25;100.00
23229;BME280;11783;50.350;6.576;2023-03-11T06:15:59;95360.25;;;-2.28;100.00
23229;BME280;11783;50.350;6.576;2023-03-11T06:18:24;95349.41;;;-2.32;100.00
23229;BME280;11783;50.350;6.576;2023-03-11T06:20:51;95361.81;;;-2.34;100.00
23229;BME280;11783;50.350;6.576;2023-03-11T06:23:18;95365.84;;;-2.31;100.00
23229;BME280;11783;50.350;6.576;2023-03-11T06:25:43;95358.84;;;-2.31;100.00
23229;BME280;11783;50.350;6.576;2023-03-11T06:28:08;95359.81;;;-2.32;100.00
23229;BME280;11783;50.350;6.576;2023-03-11T06:30:34;95365.22;;;-2.33;100.00
23229;BME280;11783;50.350;6.576;2023-03-11T06:33:00;95372.03;;;-2.32;100.00
23229;BME280;11783;50.350;6.576;2023-03-11T06:35:25;95369.44;;;-2.32;100.00
23229;BME280;11783;50.350;6.576;2023-03-11T06:37:51;95371.41;;;-2.34;100.00
23229;BME280;11783;50.350;6.576;2023-03-11T06:40:16;95380.22;;;-2.35;100.00
23229;BME280;11783;50.350;6.576;2023-03-11T06:42:45;95381.81;;;-2.34;100.00
23229;BME280;11783;50.350;6.576;2023-03-11T06:45:10;95392.03;;;-2.33;100.00
23229;BME280;11783;50.350;6.576;2023-03-11T06:47:36;95397.25;;;-2.33;100.00
23229;BME280;11783;50.350;6.576;2023-03-11T06:50:01;95403.44;;;-2.34;100.00
23229;BME280;11783;50.350;6.576;2023-03-11T06:52:31;95403.44;;;-2.34;100.00
23229;BME280;11783;50.350;6.576;2023-03-11T06:54:56;95405.44;;;-2.36;100.00
23229;BME280;11783;50.350;6.576;2023-03-11T06:57:21;95407.03;;;-2.35;100.00
23229;BME280;11783;50.350;6.576;2023-03-11T06:59:47;95411.69;;;-2.30;100.00
23229;BME280;11783;50.350;6.576;2023-03-11T07:02:12;95407.22;;;-2.36;100.00
23229;BME280;11783;50.350;6.576;2023-03-11T07:04:38;95419.88;;;-2.33;100.00
23229;BME280;11783;50.350;6.576;2023-03-11T07:07:06;95421.47;;;-2.32;100.00
23229;BME280;11783;50.350;6.576;2023-03-11T07:09:32;95424.88;;;-2.32;100.00
23229;BME280;11783;50.350;6.576;2023-03-11T07:11:57;95433.69;;;-2.33;100.00
23229;BME280;11783;50.350;6.576;2023-03-11T07:14:22;95438.69;;;-2.31;100.00
23229;BME280;11783;50.350;6.576;2023-03-11T07:16:48;95435.47;;;-2.33;100.00
23229;BME280;11783;50.350;6.576;2023-03-11T07:19:14;95440.31;;;-2.30;100.00
23229;BME280;11783;50.350;6.576;2023-03-11T07:21:39;95446.13;;;-2.28;100.00
23229;BME280;11783;50.350;6.576;2023-03-11T07:24:05;95453.94;;;-2.28;100.00
23229;BME280;11783;50.350;6.576;2023-03-11T07:26:32;95455.56;;;-2.27;100.00
23229;BME280;11783;50.350;6.576;2023-03-11T07:28:59;95459.78;;;-2.26;100.00
23229;BME280;11783;50.350;6.576;2023-03-11T07:31:27;95459.59;;;-2.25;100.00
23229;BME280;11783;50.350;6.576;2023-03-11T07:33:55;95468.19;;;-2.24;100.00
23229;BME280;11783;50.350;6.576;2023-03-11T07:36:22;95467.31;;;-2.31;100.00
23229;BME280;11783;50.350;6.576;2023-03-11T07:38:54;95477.81;;;-2.25;100.00
23229;BME280;11783;50.350;6.576;2023-03-11T07:41:19;95471.63;;;-2.24;100.00
23229;BME280;11783;50.350;6.576;2023-03-11T07:43:44;95480.06;;;-2.22;100.00
23229;BME280;11783;50.350;6.576;2023-03-11T07:46:12;95483.91;;;-2.18;100.00
23229;BME280;11783;50.350;6.576;2023-03-11T07:48:40;95485.34;;;-2.15;100.00
23229;BME280;11783;50.350;6.576;2023-03-11T07:51:12;95488.19;;;-2.10;100.00
23229;BME280;11783;50.350;6.576;2023-03-11T07:53:38;95484.09;;;-2.04;100.00
23229;BME280;11783;50.350;6.576;2023-03-11T07:56:06;95493.19;;;-1.94;100.00
23229;BME280;11783;50.350;6.576;2023-03-11T07:58:31;95498.56;;;-1.80;100.00
23229;BME280;11783;50.350;6.576;2023-03-11T08:01:05;95494.66;;;-1.70;100.00
23229;BME280;11783;50.350;6.576;2023-03-11T08:03:32;95498.03;;;-1.55;100.00
23229;BME280;11783;50.350;6.576;2023-03-11T08:05:57;95491.53;;;-1.44;100.00
23229;BME280;11783;50.350;6.576;2023-03-11T08:08:22;95489.78;;;-1.37;100.00
23229;BME280;11783;50.350;6.576;2023-03-11T08:10:48;95492.13;;;-1.20;100.00
23229;BME280;11783;50.350;6.576;2023-03-11T08:13:13;95496.69;;;-1.01;100.00
23229;BME280;11783;50.350;6.576;2023-03-11T08:15:39;95507.94;;;-0.73;100.00
23229;BME280;11783;50.350;6.576;2023-03-11T08:18:04;95503.31;;;-0.43;100.00
23229;BME280;11783;50.350;6.576;2023-03-11T08:20:30;95501.09;;;-0.05;100.00
23229;BME280;11783;50.350;6.576;2023-03-11T08:22:55;95497.19;;;0.26;100.00
23229;BME280;11783;50.350;6.576;2023-03-11T08:25:21;95491.41;;;0.44;100.00
23229;BME280;11783;50.350;6.576;2023-03-11T08:27:47;95495.28;;;0.81;100.00
23229;BME280;11783;50.350;6.576;2023-03-11T08:30:12;95495.28;;;1.20;100.00
23229;BME280;11783;50.350;6.576;2023-03-11T08:32:38;95497.28;;;1.25;93.94
23229;BME280;11783;50.350;6.576;2023-03-11T08:35:04;95485.22;;;1.31;94.39
23229;BME280;11783;50.350;6.576;2023-03-11T08:37:29;95490.59;;;1.69;96.71
23229;BME280;11783;50.350;6.576;2023-03-11T08:39:55;95488.66;;;2.02;93.95
23229;BME280;11783;50.350;6.576;2023-03-11T08:42:21;95485.75;;;2.24;92.96
23229;BME280;11783;50.350;6.576;2023-03-11T08:44:46;95496.31;;;2.49;90.94
23229;BME280;11783;50.350;6.576;2023-03-11T08:47:12;95487.38;;;2.63;86.19
23229;BME280;11783;50.350;6.576;2023-03-11T08:49:37;95494.44;;;2.62;81.90
23229;BME280;11783;50.350;6.576;2023-03-11T08:52:03;95497.88;;;2.88;86.46
23229;BME280;11783;50.350;6.576;2023-03-11T08:54:29;95505.75;;;3.19;85.72
23229;BME280;11783;50.350;6.576;2023-03-11T08:56:54;95512.09;;;3.30;83.75
23229;BME280;11783;50.350;6.576;2023-03-11T08:59:20;95512.00;;;3.43;84.02
23229;BME280;11783;50.350;6.576;2023-03-11T09:01:45;95511.31;;;3.54;82.40
23229;BME280;11783;50.350;6.576;2023-03-11T09:04:11;95509.03;;;3.58;80.11
23229;BME280;11783;50.350;6.576;2023-03-11T09:06:40;95503.00;;;3.76;80.19
23229;BME280;11783;50.350;6.576;2023-03-11T09:09:06;95506.75;;;3.43;70.47
23229;BME280;11783;50.350;6.576;2023-03-11T09:11:31;95503.34;;;3.18;72.57
23229;BME280;11783;50.350;6.576;2023-03-11T09:13:57;95500.69;;;2.93;74.66
23229;BME280;11783;50.350;6.576;2023-03-11T09:16:22;95500.88;;;2.98;76.53
23229;BME280;11783;50.350;6.576;2023-03-11T09:18:48;95502.50;;;2.92;77.84
23229;BME280;11783;50.350;6.576;2023-03-11T09:21:14;95496.72;;;3.09;78.23
23229;BME280;11783;50.350;6.576;2023-03-11T09:23:40;95507.88;;;3.04;74.08
23229;BME280;11783;50.350;6.576;2023-03-11T09:26:05;95502.88;;;2.96;72.84
23229;BME280;11783;50.350;6.576;2023-03-11T09:28:31;95511.56;;;2.65;71.13
23229;BME280;11783;50.350;6.576;2023-03-11T09:30:56;95523.09;;;2.57;76.70
23229;BME280;11783;50.350;6.576;2023-03-11T09:33:22;95517.91;;;2.51;79.44
23229;BME280;11783;50.350;6.576;2023-03-11T09:35:47;95518.00;;;2.31;76.96
23229;BME280;11783;50.350;6.576;2023-03-11T09:38:13;95531.94;;;2.18;76.61
23229;BME280;11783;50.350;6.576;2023-03-11T09:41:00;95535.81;;;2.02;78.08
23229;BME280;11783;50.350;6.576;2023-03-11T09:43:57;95537.84;;;2.07;77.50
23229;BME280;11783;50.350;6.576;2023-03-11T09:52:18;95539.09;;;1.85;78.41
23229;BME280;11783;50.350;6.576;2023-03-11T09:54:50;95545.56;;;1.82;76.32
23229;BME280;11783;50.350;6.576;2023-03-11T09:57:21;95552.19;;;1.91;79.68
23229;BME280;11783;50.350;6.576;2023-03-11T09:59:48;95565.09;;;1.93;75.86
23229;BME280;11783;50.350;6.576;2023-03-11T10:02:19;95570.53;;;1.98;77.67
23229;BME280;11783;50.350;6.576;2023-03-11T10:04:59;95580.00;;;2.05;79.02
23229;BME280;11783;50.350;6.576;2023-03-11T10:07:32;95580.34;;;2.16;77.83
23229;BME280;11783;50.350;6.576;2023-03-11T10:10:00;95572.31;;;2.04;71.37
23229;BME280;11783;50.350;6.576;2023-03-11T10:24:02;95587.91;;;1.72;73.16
23229;BME280;11783;50.350;6.576;2023-03-11T10:26:36;95580.63;;;1.81;77.92
23229;BME280;11783;50.350;6.576;2023-03-11T10:32:19;95573.75;;;2.06;74.41
23229;BME280;11783;50.350;6.576;2023-03-11T10:34:59;95574.13;;;2.10;76.68
23229;BME280;11783;50.350;6.576;2023-03-11T10:37:32;95573.13;;;2.11;74.97
23229;BME280;11783;50.350;6.576;2023-03-11T10:42:45;95560.63;;;2.00;68.82
23229;BME280;11783;50.350;6.576;2023-03-11T10:45:14;95566.88;;;1.99;72.15
23229;BME280;11783;50.350;6.576;2023-03-11T10:47:40;95565.31;;;1.91;72.41
23229;BME280;11783;50.350;6.576;2023-03-11T10:50:07;95566.09;;;1.98;66.90
23229;BME280;11783;50.350;6.576;2023-03-11T10:52:43;95563.47;;;2.05;71.34
23229;BME280;11783;50.350;6.576;2023-03-11T10:55:14;95568.25;;;2.15;72.81
23229;BME280;11783;50.350;6.576;2023-03-11T10:57:43;95567.84;;;2.18;71.46
23229;BME280;11783;50.350;6.576;2023-03-11T11:00:28;95585.97;;;2.19;74.75
23229;BME280;11783;50.350;6.576;2023-03-11T11:02:53;95580.94;;;2.24;73.69
23229;BME280;11783;50.350;6.576;2023-03-11T11:05:28;95564.41;;;2.24;70.71
23229;BME280;11783;50.350;6.576;2023-03-11T11:08:14;95573.66;;;2.33;71.30
23229;BME280;11783;50.350;6.576;2023-03-11T11:10:51;95580.50;;;2.34;71.29
23229;BME280;11783;50.350;6.576;2023-03-11T11:13:19;95567.19;;;2.35;71.45
23229;BME280;11783;50.350;6.576;2023-03-11T11:15:54;95570.00;;;2.34;71.53
23229;BME280;11783;50.350;6.576;2023-03-11T11:18:42;95563.94;;;2.40;69.17
23229;BME280;11783;50.350;6.576;2023-03-11T11:21:30;95564.47;;;2.55;74.48
23229;BME280;11783;50.350;6.576;2023-03-11T11:24:05;95563.19;;;2.71;72.30
23229;BME280;11783;50.350;6.576;2023-03-11T11:26:34;95563.25;;;2.96;72.29
23229;BME280;11783;50.350;6.576;2023-03-11T11:31:31;95553.22;;;3.18;69.77
23229;BME280;11783;50.350;6.576;2023-03-11T11:33:57;95558.63;;;3.23;69.80
23229;BME280;11783;50.350;6.576;2023-03-11T11:36:34;95561.41;;;3.28;70.62
23229;BME280;11783;50.350;6.576;2023-03-11T11:39:01;95564.91;;;3.22;67.41
23229;BME280;11783;50.350;6.576;2023-03-11T11:41:30;95566.88;;;3.26;62.79
23229;BME280;11783;50.350;6.576;2023-03-11T11:44:05;95572.34;;;3.25;66.67
23229;BME280;11783;50.350;6.576;2023-03-11T11:46:39;95577.66;;;3.18;67.21
23229;BME280;11783;50.350;6.576;2023-03-11T11:51:39;95595.69;;;3.08;63.94
23229;BME280;11783;50.350;6.576;2023-03-11T11:54:15;95595.53;;;3.03;68.35
23229;BME280;11783;50.350;6.576;2023-03-11T11:56:43;95594.13;;;3.00;69.29
23229;BME280;11783;50.350;6.576;2023-03-11T11:59:15;95582.03;;;2.99;69.65
23229;BME280;11783;50.350;6.576;2023-03-11T12:10:25;95566.66;;;3.28;62.76
23229;BME280;11783;50.350;6.576;2023-03-11T12:13:28;95559.66;;;3.22;65.47
23229;BME280;11783;50.350;6.576;2023-03-11T12:16:25;95549.16;;;3.22;64.76
23229;BME280;11783;50.350;6.576;2023-03-11T12:19:19;95547.69;;;3.26;65.52
23229;BME280;11783;50.350;6.576;2023-03-11T12:22:16;95553.69;;;3.33;67.73
23229;BME280;11783;50.350;6.576;2023-03-11T12:27:27;95558.25;;;3.44;65.88
23229;BME280;11783;50.350;6.576;2023-03-11T12:29:57;95555.34;;;3.52;65.89
23229;BME280;11783;50.350;6.576;2023-03-11T12:32:31;95559.03;;;3.70;66.53
23229;BME280;11783;50.350;6.576;2023-03-11T12:35:08;95573.09;;;3.82;65.03
23229;BME280;11783;50.350;6.576;2023-03-11T12:37:35;95568.06;;;3.80;67.26
23229;BME280;11783;50.350;6.576;2023-03-11T12:40:37;95560.69;;;3.89;66.90
23229;BME280;11783;50.350;6.576;2023-03-11T12:43:24;95562.38;;;4.02;65.03
23229;BME280;11783;50.350;6.576;2023-03-11T12:45:51;95565.97;;;4.07;67.51
23229;BME280;11783;50.350;6.576;2023-03-11T12:50:55;95566.63;;;4.21;65.67
23229;BME280;11783;50.350;6.576;2023-03-11T13:01:34;95554.72;;;4.18;60.03
23229;BME280;11783;50.350;6.576;2023-03-11T13:07:36;95560.28;;;3.92;60.62
23229;BME280;11783;50.350;6.576;2023-03-11T13:12:48;95567.19;;;3.86;63.00
23229;BME280;11783;50.350;6.576;2023-03-11T13:17:58;95565.94;;;3.89;62.15
23229;BME280;11783;50.350;6.576;2023-03-11T13:28:18;95565.03;;;4.20;61.82
23229;BME280;11783;50.350;6.576;2023-03-11T13:34:13;95556.69;;;4.23;57.53
23229;BME280;11783;50.350;6.576;2023-03-11T13:41:53;95555.16;;;4.34;61.28
23229;BME280;11783;50.350;6.576;2023-03-11T13:46:51;95562.59;;;4.55;60.76
23229;BME280;11783;50.350;6.576;2023-03-11T13:52:46;95559.22;;;4.96;62.05
23229;BME280;11783;50.350;6.576;2023-03-11T13:55:20;95550.56;;;5.07;64.73
23229;BME280;11783;50.350;6.576;2023-03-11T13:57:56;95551.69;;;5.41;63.97
23229;BME280;11783;50.350;6.576;2023-03-11T14:00:24;95553.41;;;5.71;62.73
23229;BME280;11783;50.350;6.576;2023-03-11T14:03:01;95543.34;;;6.03;62.12
23229;BME280;11783;50.350;6.576;2023-03-11T14:05:32;95561.00;;;6.26;56.44
23229;BME280;11783;50.350;6.576;2023-03-11T14:10:37;95555.63;;;6.61;61.66
23229;BME280;11783;50.350;6.576;2023-03-11T14:13:14;95555.13;;;6.76;58.51
23229;BME280;11783;50.350;6.576;2023-03-11T14:15:45;95554.19;;;6.82;57.32
23229;BME280;11783;50.350;6.576;2023-03-11T14:18:33;95550.94;;;6.91;56.82
23229;BME280;11783;50.350;6.576;2023-03-11T14:20:59;95552.13;;;7.12;57.61
23229;BME280;11783;50.350;6.576;2023-03-11T14:23:33;95554.88;;;7.34;55.71
23229;BME280;11783;50.350;6.576;2023-03-11T14:26:01;95551.38;;;7.45;54.09
23229;BME280;11783;50.350;6.576;2023-03-11T14:28:32;95552.16;;;7.63;52.77
23229;BME280;11783;50.350;6.576;2023-03-11T14:30:59;95551.34;;;7.62;52.34
23229;BME280;11783;50.350;6.576;2023-03-11T14:33:25;95555.75;;;7.56;55.58
23229;BME280;11783;50.350;6.576;2023-03-11T14:35:53;95555.59;;;7.46;49.60